This is the latest recevied weather packets stored in our database for station/object IW2DGQ-3. If no packets are shown the sender has not sent any weather packets the latest 10 day(s).
| Time | Temp. | Humidity | Pressure | Rain* | Wind** | Luminosity | Snow |
|---|---|---|---|---|---|---|---|
| 1777518166 | 10° C | 77% | 1023 hPa | - | - | - | - |
| 1777514556 | 10.56° C | 86% | 1022.8 hPa | - | - | - | - |
| 1777512148 | 11.11° C | 89% | 1022.6 hPa | - | - | - | - |
| 1777509740 | 11.11° C | 88% | 1022.6 hPa | - | - | - | - |
| 1777506128 | 12.22° C | 80% | 1022.1 hPa | - | - | - | - |
| 1777504924 | 12.78° C | 74% | 1022.1 hPa | - | - | - | - |
| 1777503720 | 13.33° C | 75% | 1021.8 hPa | - | - | - | - |
| 1777502516 | 13.33° C | 79% | 1021.8 hPa | - | - | - | - |
| 1777501312 | 12.22° C | 84% | 1021.7 hPa | - | - | - | - |
| 1777497700 | 13.33° C | 78% | 1020.8 hPa | - | - | - | - |
| 1777495292 | 14.44° C | 70% | 1020.3 hPa | - | - | - | - |
| 1777488070 | 17.78° C | 49% | 1018.5 hPa | - | - | - | - |
| 1777486866 | 17.78° C | 49% | 1018.2 hPa | - | - | - | - |
| 1777485663 | 18.33° C | 48% | 1017.9 hPa | - | - | - | - |
| 1777479645 | 22.22° C | 43% | 1016.8 hPa | - | - | - | - |
| 1777478443 | 22.78° C | 41% | 1016.7 hPa | - | - | - | - |
| 1777477238 | 23.33° C | 40% | 1016.8 hPa | - | - | - | - |
| 1777476034 | 23.33° C | 38% | 1016.8 hPa | - | - | - | - |
| 1777474831 | 23.89° C | 38% | 1016.7 hPa | - | - | - | - |
| 1777473628 | 23.89° C | 39% | 1016.8 hPa | - | - | - | - |
| 1777472424 | 24.44° C | 38% | 1016.9 hPa | - | - | - | - |
| 1777471220 | 24.44° C | 39% | 1016.7 hPa | - | - | - | - |
| 1777470016 | 25° C | 37% | 1016.8 hPa | - | - | - | - |
| 1777468812 | 26.11° C | 35% | 1016.9 hPa | - | - | - | - |
| 1777466404 | 25.56° C | 35% | 1017.1 hPa | - | - | - | - |
* Rain since midnight (hover to see other rain measurements)
** Current wind speed in m/s (hover to see current wind gust speed)